Tiempo atmosférico en la estación meteorológica de Las Palmas de Gran Canaria, San Cristobal, Las Palmas (55 m.)



Fecha
DESCASC
Temp. máxima en grados centígrados (hora)
DESCASC
Temp. mínima en grados centígrados (hora)
DESCASC
Temp. media en grados centígrados
DESCASC
Racha de viento máxima en m/sg (hora)
DESCASC
Velocidad máxima media en intervalos de 10 minutos(hora)
DESCASC
Precipitaciones diarias en mm
DESCASC
Precipitaciones de 00:00 a 06:00 en mm
DESCASC
Precipitaciones de 06:00 a 12:00 en mm
DESCASC
Precipitaciones de 12:00 a 18:00 en mm
DESCASC
Precipitaciones de 18:00 a 24:00 en mm
DESCASC
24-01-2021 21.9 (10:10) 16.6 (06:10) 19.3 4.44 (12:50) 3.33 (22:40) 0 0 0 0 0
23-01-2021 22.9 (13:30) 16.5 (05:30) 19.7 5.83 (16:10) 3.61 (05:40) 1.5 0.8 0.7 0 0
22-01-2021 20.8 (15:40) 16.7 (06:10) 18.8 7.78 (01:10) 4.72 (01:10) 0.2 0.1 0.1 0 0
21-01-2021 22.2 (12:10) 16.6 (00:00) 19.4 8.89 (16:20) 5.28 (18:20) 0 0 0 0 0
20-01-2021 24 (11:50) 14.9 (00:00) 19.4 6.94 (23:20) 5 (07:50) 0 0 0 0 0
19-01-2021 22.5 (12:10) 15 (00:00) 18.8 8.06 (13:40) 4.72 (13:30) 0 0 0 0 0
18-01-2021 23.1 (11:20) 15.1 (00:00) 19.1 5.56 (06:10) 3.61 (05:50) 0 0 0 0 0
17-01-2021 21.8 (13:50) 16 (00:00) 18.9 9.17 (01:40) 5 (01:40) 0 0 0 0 0
16-01-2021 21.9 (12:30) 16.2 (00:00) 19.1 10.56 (03:00) 6.11 (07:00) 0 0 0 0 0
15-01-2021 19.3 (15:30) 16.2 (00:00) 17.8 11.94 (01:00) 6.94 (04:00) 0 0 0 0 0
14-01-2021 20.6 (11:50) 16.4 (23:20) 18.5 10.56 (23:59) 6.67 (21:30) 0 0 0 0 0
13-01-2021 20.5 (15:40) 15.8 (00:00) 18.2 11.67 (07:20) 7.22 (08:10) 0 0 0 0 0
12-01-2021 21.4 (11:20) 13.5 (00:00) 17.4 11.39 (17:20) 6.67 (17:20) 1.6 0.2 0.9 0.5 0
11-01-2021 18.4 (13:10) 13.8 (00:00) 16.1 16.94 (00:50) 8.06 (10:30) 1.8 1.1 0.2 0.5 0
10-01-2021 19.3 (13:10) 13.3 (01:10) 16.3 16.39 (07:30) 9.72 (13:50) 2.4 1.6 0.7 0 0.1
09-01-2021 17.8 (12:20) 13.6 (00:00) 15.7 15.83 (06:40) 10 (10:40) 0.6 0.1 0.1 0.3 0.1
08-01-2021 22.2 (03:00) 13 (00:00) 17.6 14.72 (05:20) 9.17 (05:10) 28.8 0 4.2 4.2 20.4
07-01-2021 27.5 (16:00) 19.4 (00:00) 23.4 11.11 (13:00) 7.22 (13:00) 0 0 0 0 0
06-01-2021 26.6 (19:10) 18.3 (00:00) 22.4 12.5 (09:40) 6.11 (10:10) 0 0 0 0 0
05-01-2021 27.2 (11:50) 17.8 (00:00) 22.5 5.28 (17:10) 3.89 (12:50) 0 0 0 0 0
04-01-2021 20.9 (14:30) 16.7 (00:00) 18.8 13.61 (11:50) 10.28 (11:50) 0 0 0 0 0
03-01-2021 21.3 (16:20) 16.6 (00:00) 18.9 7.5 (12:10) 5 (12:10) 0 0 0 0 0
02-01-2021 20.6 (13:50) 15.8 (00:00) 18.2 8.33 (14:40) 4.17 (23:00) 0 0 0 0 0
01-01-2021 19.9 (12:00) 15.7 (00:00) 17.8 10.83 (11:10) 6.11 (11:10) 0.1 0 0.1 0 0
31-12-2020 20.3 (11:20) 15.9 (00:00) 18.1 9.44 (21:20) 5.56 (19:50) 0 0 0 0 0
30-12-2020 20.9 (11:20) 16.3 (00:00) 18.6 8.06 (16:00) 4.44 (15:50) 0 0 0 0 0
29-12-2020 22.3 (12:20) 17.3 (00:00) 19.8 6.39 (19:10) 3.89 (02:00) 0 0 0 0 0
28-12-2020 24.8 (10:30) 17.4 (00:00) 21.1 6.67 (01:40) 4.72 (00:20) 0 0 0 0 0
27-12-2020 26.5 (13:00) 17 (00:00) 21.8 7.22 (23:40) 4.72 (23:00) 0 0 0 0 0
26-12-2020 24.5 (11:00) 17.5 (00:00) 21 10.28 (17:30) 8.06 (15:20) 0 0 0 0 0

Gráficas

Temp. máximas Temp. mínimas Temp. medias Precipitaciones Rachas de viento máximas Velocidades máximas media en intervalos de 10 minutos

Datos horarios

Fecha y hora oficial Temperatura (ºC) Velocidad del viento (km/h) Dirección del viento Racha (km/h) Dirección de racha Precipitación (mm) Presión (hPa) Tendencia (hPa) Humedad (%)
2021-01-24 23:00:00 17.4 12 Noroeste 15 Noroeste 0 -- -- 80
2021-01-24 22:00:00 17.5 7 Noroeste 10 Oeste 0 -- -- 82
2021-01-24 21:00:00 17.8 3 Norte 6 Norte 0 -- -- 82
2021-01-24 20:00:00 18 2 Este 7 Nordeste 0 -- -- 79
2021-01-24 19:00:00 18.2 2 Este 6 Sudeste 0 -- -- 79
2021-01-24 18:00:00 18.9 4 Nordeste 11 Nordeste 0 -- -- 74
2021-01-24 17:00:00 19.2 6 Nordeste 14 Nordeste 0 -- -- 73
2021-01-24 16:00:00 19 6 Nordeste 14 Norte 0 -- -- 71
2021-01-24 15:00:00 19.6 7 Nordeste 15 Nordeste 0 -- -- 70
2021-01-24 14:00:00 20 8 Nordeste 16 Nordeste 0 -- -- 67
2021-01-24 13:00:00 20.4 7 Nordeste 16 Este 0 -- -- 68
2021-01-24 12:00:00 20.7 5 Nordeste 14 Nordeste 0 -- -- 64
2021-01-24 11:00:00 19.5 6 Nordeste 13 Nordeste 0 -- -- 67
2021-01-24 10:00:00 21.7 0 Calma 8 Noroeste 0 -- -- 64
2021-01-24 09:00:00 17.5 3 Norte 6 Norte 0 -- -- 78
2021-01-24 08:00:00 16.9 5 Noroeste 8 Noroeste 0 -- -- 80
2021-01-24 07:00:00 16.8 4 Noroeste 5 Noroeste 0 -- -- 79
2021-01-24 06:00:00 16.7 0 Calma 8 Noroeste 0 -- -- 79
2021-01-24 05:00:00 16.9 5 Noroeste 8 Noroeste 0 -- -- 78
2021-01-24 04:00:00 16.9 5 Norte 8 Norte 0 -- -- 76
2021-01-24 03:00:00 17.2 0 Calma 8 Noroeste 0 -- -- 75
2021-01-24 02:00:00 17.5 4 Norte 13 Norte 0 -- -- 73
2021-01-24 01:00:00 17.7 5 Nordeste 13 Norte 0 -- -- 73
2021-01-24 00:00:00 17.9 6 Nordeste 17 Nordeste 0 -- -- 73
2021-01-23 23:00:00 17.7 8 Nordeste 19 Nordeste 0 -- -- 73
2021-01-23 22:00:00 17.9 8 Norte 18 Norte 0 -- -- 73
2021-01-23 21:00:00 18 6 Norte 17 Nordeste 0 -- -- 72
2021-01-23 20:00:00 17.8 9 Norte 18 Norte 0 -- -- 71
2021-01-23 19:00:00 17.8 6 Norte 15 Nordeste 0 -- -- 70
2021-01-23 18:00:00 19.6 5 Norte 17 Nordeste 0 -- -- 65
2021-01-23 17:00:00 18.3 8 Norte 21 Nordeste 0 -- -- 64
2021-01-23 16:00:00 19 10 Norte 20 Nordeste 0 -- -- 63
2021-01-23 15:00:00 19.8 11 Nordeste 19 Nordeste 0 -- -- 62
2021-01-23 14:00:00 19.8 6 Nordeste 19 Nordeste 0 -- -- 60
2021-01-23 13:00:00 19.1 9 Nordeste 20 Nordeste 0 -- -- 62
2021-01-23 12:00:00 20.7 4 Norte 16 Nordeste 0 -- -- 54
2021-01-23 11:00:00 19.5 4 Norte 20 Nordeste 0 -- -- 73
2021-01-23 10:00:00 17.4 9 Norte 19 Norte 0 -- -- 85
2021-01-23 09:00:00 17.1 6 Norte 15 Noroeste 0.7 -- -- 87
2021-01-23 08:00:00 17.3 9 Noroeste 17 Oeste 0 -- -- 84
2021-01-23 07:00:00 17.1 8 Noroeste 15 Noroeste 0 -- -- 85
2021-01-23 06:00:00 16.8 6 Noroeste 18 Noroeste 0.4 -- -- 87
2021-01-23 05:00:00 16.6 8 Oeste 15 Noroeste 0 -- -- 86
2021-01-23 04:00:00 16.7 9 Oeste 14 Oeste 0.2 -- -- 86
2021-01-23 03:00:00 16.8 5 Noroeste 15 Oeste 0.2 -- -- 86
2021-01-23 02:00:00 17 9 Oeste 15 Noroeste 0 -- -- 86
2021-01-23 01:00:00 17.5 3 Noroeste 18 Norte 0 -- -- 84
2021-01-23 00:00:00 17.5 8 Norte 15 Norte 0 -- -- 83
2021-01-22 23:00:00 17.6 8 Norte 18 Noroeste 0 -- -- 82
2021-01-22 22:00:00 18.2 11 Norte 18 Norte 0 -- -- 75
2021-01-22 21:00:00 18.5 10 Norte 19 Norte 0 -- -- 74
2021-01-22 20:00:00 18.5 14 Noroeste 19 Norte 0 -- -- 74
2021-01-22 19:00:00 18.8 9 Norte 16 Norte 0 -- -- 73
2021-01-22 18:00:00 18.7 8 Norte 16 Noroeste 0 -- -- 73
2021-01-22 17:00:00 18.8 7 Norte 18 Norte 0 -- -- 69
2021-01-22 16:00:00 19.1 11 Norte 21 Norte 0 -- -- 69
2021-01-22 15:00:00 19.8 8 Norte 22 Noroeste 0 -- -- 71
2021-01-22 14:00:00 18.3 12 Norte 22 Norte 0 -- -- 72
2021-01-22 13:00:00 18.8 15 Norte 24 Norte 0 -- -- 70
2021-01-22 12:00:00 18.9 11 Noroeste 23 Noroeste 0 -- -- 68
2021-01-22 11:00:00 19.8 14 Noroeste 24 Norte 0 -- -- 71
2021-01-22 10:00:00 19.2 9 Noroeste 23 Norte 0 -- -- 75
2021-01-22 09:00:00 17 12 Noroeste 19 Noroeste 0 -- -- 87
2021-01-22 08:00:00 16.7 10 Noroeste 23 Norte 0.1 -- -- 89
2021-01-22 07:00:00 17.2 10 Noroeste 18 Noroeste 0 -- -- 89
2021-01-22 06:00:00 17 10 Norte 20 Norte 0 -- -- 90
2021-01-22 05:00:00 17.4 8 Norte 18 Oeste 0.1 -- -- 89
2021-01-22 04:00:00 17.8 11 Noroeste 21 Oeste 0 -- -- 85
2021-01-22 03:00:00 17.7 13 Oeste 19 Noroeste 0 -- -- 85
2021-01-22 02:00:00 17.8 12 Noroeste 28 Oeste 0 -- -- 86
2021-01-22 01:00:00 18 15 Noroeste 23 Noroeste 0 -- -- 84
2021-01-22 00:00:00 18.7 11 Noroeste 22 Noroeste 0 -- -- 78
2021-01-21 23:00:00 18.8 13 Noroeste 21 Noroeste 0 -- -- 79
2021-01-21 22:00:00 19.7 8 Norte 19 Oeste 0 -- -- 77
2021-01-21 21:00:00 18.8 8 Noroeste 21 Noroeste 0 -- -- 78
2021-01-21 20:00:00 19 12 Noroeste 23 Noroeste 0 -- -- 79
2021-01-21 19:00:00 18.6 14 Noroeste 26 Noroeste 0 -- -- 76
2021-01-21 18:00:00 20.5 15 Noroeste 29 Noroeste 0 -- -- 73
2021-01-21 17:00:00 19.4 18 Noroeste 32 Oeste 0 -- -- 70
2021-01-21 16:00:00 19.9 14 Noroeste 29 Noroeste 0 -- -- 67
2021-01-21 15:00:00 20 13 Noroeste 25 Noroeste 0 -- -- 66
2021-01-21 14:00:00 19.9 12 Norte 27 Noroeste 0 -- -- 65
2021-01-21 13:00:00 19.5 16 Noroeste 28 Noroeste 0 -- -- 65
2021-01-21 12:00:00 19.7 11 Norte 20 Norte 0 -- -- 65
2021-01-21 11:00:00 19.3 8 Noroeste 16 Noroeste 0 -- -- 71
2021-01-21 10:00:00 17.2 10 Noroeste 18 Noroeste 0 -- -- 85
2021-01-21 09:00:00 17.8 9 Noroeste 16 Noroeste 0 -- -- 75
2021-01-21 08:00:00 17.7 8 Noroeste 17 Noroeste 0 -- -- 74
2021-01-21 07:00:00 17.9 8 Noroeste 17 Noroeste 0 -- -- 73
2021-01-21 06:00:00 17.7 10 Noroeste 19 Oeste 0 -- -- 73
2021-01-21 05:00:00 17.5 9 Oeste 17 Noroeste 0 -- -- 73
2021-01-21 04:00:00 17.5 8 Oeste 15 Noroeste 0 -- -- 73
2021-01-21 03:00:00 17.2 10 Oeste 18 Oeste 0 -- -- 73
2021-01-21 02:00:00 16.8 12 Oeste 21 Oeste 0 -- -- 71
2021-01-21 01:00:00 16.7 14 Oeste 23 Oeste 0 -- -- 71
2021-01-21 00:00:00 16.7 13 Oeste 25 Oeste 0 -- -- 70
2021-01-20 23:00:00 16.5 12 Noroeste 20 Oeste 0 -- -- 70
2021-01-20 22:00:00 17.1 11 Oeste 19 Noroeste 0 -- -- 70
2021-01-20 21:00:00 17.3 8 Noroeste 13 Norte 0 -- -- 68
2021-01-20 20:00:00 17.6 8 Noroeste 15 Norte 0 -- -- 67
2021-01-20 19:00:00 17.8 5 Norte 10 Norte 0 -- -- 65
2021-01-20 18:00:00 18.1 5 Nordeste 9 Este 0 -- -- 64
2021-01-20 17:00:00 20.4 3 Este 10 Este 0 -- -- 61
2021-01-20 16:00:00 19 5 Nordeste 12 Nordeste 0 -- -- 62
2021-01-20 15:00:00 18.4 7 Este 12 Nordeste 0 -- -- 63
2021-01-20 14:00:00 19.9 6 Este 12 Este 0 -- -- 57
2021-01-20 13:00:00 22.4 3 Sudeste 12 Sudeste 0 -- -- 53
2021-01-20 12:00:00 21.9 4 Este 12 Sudeste 0 -- -- 52
2021-01-20 11:00:00 22.5 4 Este 9 Sudeste 0 -- -- 51
2021-01-20 10:00:00 21.5 0 Calma 17 Oeste 0 -- -- 56
2021-01-20 09:00:00 16.4 12 Oeste 21 Oeste 0 -- -- 65
2021-01-20 08:00:00 15.6 18 Oeste 22 Oeste 0 -- -- 67
2021-01-20 07:00:00 15.5 15 Oeste 23 Oeste 0 -- -- 68
2021-01-20 06:00:00 15.3 12 Oeste 21 Oeste 0 -- -- 67
2021-01-20 05:00:00 15.3 13 Oeste 22 Oeste 0 -- -- 65
2021-01-20 04:00:00 15.5 12 Oeste 20 Oeste 0 -- -- 68
2021-01-20 03:00:00 15.3 13 Oeste 23 Oeste 0 -- -- 69
2021-01-20 02:00:00 15.1 10 Oeste 14 Oeste 0 -- -- 70
2021-01-20 01:00:00 15.1 7 Oeste 13 Oeste 0 -- -- 71
2021-01-20 00:00:00 15.5 7 Oeste 13 Oeste 0 -- -- 71
2021-01-19 23:00:00 15.7 8 Oeste 10 Oeste 0 -- -- 71
2021-01-19 22:00:00 16 4 Sudoeste 9 Sur 0 -- -- 71
2021-01-19 21:00:00 16.3 0 Calma 7 Sudoeste 0 -- -- 70
2021-01-19 20:00:00 16.5 5 Sudoeste 13 Sur 0 -- -- 70
2021-01-19 19:00:00 17.2 6 Sudeste 10 Sudeste 0 -- -- 68
2021-01-19 18:00:00 18.3 2 Este 10 Sudeste 0 -- -- 63
2021-01-19 17:00:00 17.8 5 Este 18 Sudeste 0 -- -- 64
2021-01-19 16:00:00 19.7 8 Sudeste 19 Sudeste 0 -- -- 61
2021-01-19 15:00:00 20.1 3 Este 23 Sudeste 0 -- -- 59
2021-01-19 14:00:00 20.9 14 Sudeste 29 Sudeste 0 -- -- 57
2021-01-19 13:00:00 20.4 12 Sudeste 26 Sudeste 0 -- -- 57
2021-01-19 12:00:00 20.7 7 Sudeste 22 Este 0 -- -- 56
2021-01-19 11:00:00 19.6 14 Sudeste 21 Sudeste 0 -- -- 60
2021-01-19 10:00:00 18.4 10 Sur 14 Sur 0 -- -- 64
2021-01-19 09:00:00 16.5 0 Calma 8 Oeste 0 -- -- 69
2021-01-19 08:00:00 16.6 3 Oeste 9 Noroeste 0 -- -- 68
2021-01-19 07:00:00 15.4 8 Oeste 13 Oeste 0 -- -- 69
2021-01-19 06:00:00 15.3 8 Oeste 13 Oeste 0 -- -- 69
2021-01-19 05:00:00 15.2 10 Oeste 14 Oeste 0 -- -- 69
2021-01-19 04:00:00 15.4 9 Oeste 13 Oeste 0 -- -- 69
2021-01-19 03:00:00 15.5 8 Oeste 16 Oeste 0 -- -- 69
2021-01-19 02:00:00 15.3 11 Oeste 18 Oeste 0 -- -- 70
2021-01-19 01:00:00 15.5 12 Oeste 19 Oeste 0 -- -- 71
2021-01-19 00:00:00 15.6 12 Oeste 18 Oeste 0 -- -- 71
2021-01-18 23:00:00 15.8 12 Oeste 17 Oeste 0 -- -- 72
2021-01-18 22:00:00 16 11 Oeste 16 Oeste 0 -- -- 70
2021-01-18 21:00:00 16.4 6 Noroeste 9 Noroeste 0 -- -- 69
2021-01-18 20:00:00 17.8 0 Calma -- -- 0 -- -- 68
2021-01-18 19:00:00 17.1 0 Calma 7 Sudeste 0 -- -- 67
2021-01-18 18:00:00 18.2 3 Sudeste 13 Este 0 -- -- 62
2021-01-18 17:00:00 20.8 2 Sudeste 12 Este 0 -- -- 56
2021-01-18 16:00:00 20 8 Este 14 Nordeste 0 -- -- 58
2021-01-18 15:00:00 19.6 7 Este 16 Este 0 -- -- 58
2021-01-18 14:00:00 19.7 10 Este 18 Nordeste 0 -- -- 62
2021-01-18 13:00:00 18.2 11 Este 18 Nordeste 0 -- -- 63
2021-01-18 12:00:00 18.6 8 Este 12 Este 0 -- -- 59
2021-01-18 11:00:00 20.6 4 Nordeste 13 Este 0 -- -- 56
2021-01-18 10:00:00 19.3 2 Nordeste 6 Oeste 0 -- -- 60
2021-01-18 09:00:00 16.5 6 Oeste 15 Oeste 0 -- -- 67
2021-01-18 08:00:00 15.7 8 Oeste 14 Noroeste 0 -- -- 68
2021-01-18 07:00:00 15.6 9 Oeste 20 Noroeste 0 -- -- 68
2021-01-18 06:00:00 15.3 13 Oeste 18 Oeste 0 -- -- 69
2021-01-18 05:00:00 15.5 11 Oeste 17 Oeste 0 -- -- 68
2021-01-18 04:00:00 15.4 10 Oeste 17 Oeste 0 -- -- 69
2021-01-18 03:00:00 15.4 10 Oeste 16 Oeste 0 -- -- 68
2021-01-18 02:00:00 15.6 8 Oeste 12 Oeste 0 -- -- 67
2021-01-18 01:00:00 15.8 5 Oeste 15 Oeste 0 -- -- 66
2021-01-18 00:00:00 16 8 Oeste 15 Oeste 0 -- -- 65
2021-01-17 23:00:00 16.7 5 Noroeste 13 Norte 0 -- -- 64
2021-01-17 22:00:00 17.7 7 Oeste 16 Oeste 0 -- -- 63
2021-01-17 21:00:00 16.4 10 Oeste 16 Noroeste 0 -- -- 63
2021-01-17 20:00:00 16.8 5 Noroeste 14 Norte 0 -- -- 62
2021-01-17 19:00:00 17 7 Norte 16 Noroeste 0 -- -- 62
2021-01-17 18:00:00 17.5 7 Norte 15 Nordeste 0 -- -- 62
2021-01-17 17:00:00 17.7 6 Nordeste 15 Nordeste 0 -- -- 60
2021-01-17 16:00:00 18.3 9 Nordeste 17 Este 0 -- -- 58
2021-01-17 15:00:00 19.1 6 Nordeste 17 Este 0 -- -- 56
2021-01-17 14:00:00 18.3 11 Este 22 Este 0 -- -- 57
2021-01-17 13:00:00 18.8 10 Este 21 Este 0 -- -- 58
2021-01-17 12:00:00 18.1 14 Nordeste 20 Nordeste 0 -- -- 58
2021-01-17 11:00:00 19.4 13 Nordeste 21 Nordeste 0 -- -- 52
2021-01-17 10:00:00 20.2 11 Nordeste 20 Nordeste 0 -- -- 53
2021-01-17 09:00:00 17.5 4 Nordeste 25 Nordeste 0 -- -- 58
2021-01-17 08:00:00 16.8 4 Norte 19 Nordeste 0 -- -- 62
2021-01-17 07:00:00 17 13 Nordeste 23 Nordeste 0 -- -- 58
2021-01-17 06:00:00 17 13 Nordeste 24 Nordeste 0 -- -- 58
2021-01-17 05:00:00 16.8 4 Noroeste 29 Nordeste 0 -- -- 59
2021-01-17 04:00:00 17 12 Nordeste 19 Nordeste 0 -- -- 62
2021-01-17 03:00:00 16.6 14 Nordeste 30 Norte 0 -- -- 59
2021-01-17 02:00:00 16.7 10 Nordeste 33 Nordeste 0 -- -- 59
2021-01-17 01:00:00 17 5 Nordeste 26 Nordeste 0 -- -- 58
2021-01-17 00:00:00 17.1 9 Norte 25 Nordeste 0 -- -- 59
2021-01-16 23:00:00 17.1 8 Norte 25 Nordeste 0 -- -- 58
2021-01-16 22:00:00 17.4 15 Nordeste 32 Nordeste 0 -- -- 58
2021-01-16 21:00:00 17.6 5 Norte 21 Norte 0 -- -- 60
2021-01-16 20:00:00 17.6 12 Nordeste 26 Este 0 -- -- 59
2021-01-16 19:00:00 17.4 16 Nordeste 33 Nordeste 0 -- -- 68
2021-01-16 18:00:00 18 18 Nordeste 29 Nordeste 0 -- -- 68
2021-01-16 17:00:00 18.2 11 Nordeste 23 Nordeste 0 -- -- 60
2021-01-16 16:00:00 20.8 10 Nordeste 22 Nordeste 0 -- -- 55
2021-01-16 15:00:00 20.1 12 Nordeste 29 Nordeste 0 -- -- 57
2021-01-16 14:00:00 18.6 8 Nordeste 23 Nordeste 0 -- -- 60
2021-01-16 13:00:00 19.3 8 Nordeste 24 Nordeste 0 -- -- 52
2021-01-16 12:00:00 18.9 15 Nordeste 25 Nordeste 0 -- -- 54
2021-01-16 11:00:00 18.7 6 Norte 13 Este 0 -- -- 54
2021-01-16 10:00:00 17.8 15 Nordeste 35 Nordeste 0 -- -- 52
2021-01-16 09:00:00 17.3 10 Norte 23 Nordeste 0 -- -- 58
2021-01-16 08:00:00 16.8 12 Norte 35 Nordeste 0 -- -- 57
2021-01-16 07:00:00 16.8 22 Nordeste 36 Nordeste 0 -- -- 58
2021-01-16 06:00:00 16.6 5 Noroeste 28 Nordeste 0 -- -- 57
2021-01-16 05:00:00 16.5 6 Nordeste 21 Nordeste 0 -- -- 58
2021-01-16 04:00:00 16.4 6 Norte 30 Nordeste 0 -- -- 57
2021-01-16 03:00:00 16.4 19 Nordeste 38 Nordeste 0 -- -- 57
2021-01-16 02:00:00 16.6 16 Nordeste 35 Nordeste 0 -- -- 59
2021-01-16 01:00:00 16.8 3 Norte 35 Nordeste 0 -- -- 56
2021-01-16 00:00:00 16.5 8 Noroeste 25 Nordeste 0 -- -- 56
2021-01-15 23:00:00 17.5 16 Norte 42 Nordeste 0 -- -- 56
2021-01-15 22:00:00 16.9 17 Norte 36 Nordeste 0 -- -- 57
2021-01-15 21:00:00 16.8 11 Noroeste 25 Norte 0 -- -- 54
2021-01-15 20:00:00 16.7 14 Norte 31 Norte 0 -- -- 54
2021-01-15 19:00:00 17.9 10 Noroeste 36 Nordeste 0 -- -- 52
2021-01-15 18:00:00 18.1 18 Norte 36 Norte 0 -- -- 56
2021-01-15 17:00:00 16.9 15 Norte 33 Nordeste 0 -- -- 63
2021-01-15 16:00:00 17.5 17 Norte 28 Norte 0 -- -- 54
2021-01-15 15:00:00 18.6 8 Norte 31 Nordeste 0 -- -- 56
2021-01-15 14:00:00 17.2 11 Norte 32 Nordeste 0 -- -- 59
2021-01-15 13:00:00 17.5 17 Nordeste 32 Nordeste 0 -- -- 53
2021-01-15 12:00:00 17.1 17 Nordeste 31 Nordeste 0 -- -- 58
2021-01-15 11:00:00 17.2 9 Nordeste 26 Norte 0 -- -- 54
2021-01-15 10:00:00 16.7 12 Norte 24 Nordeste 0 -- -- 58
2021-01-15 09:00:00 16.5 13 Norte 34 Nordeste 0 -- -- 54
2021-01-15 08:00:00 16.7 8 Nordeste 42 Nordeste 0 -- -- 54
2021-01-15 07:00:00 16.7 19 Nordeste 35 Nordeste 0 -- -- 56
2021-01-15 06:00:00 16.6 9 Norte 19 Norte 0 -- -- 59
2021-01-15 05:00:00 16.4 11 Norte 40 Nordeste 0 -- -- 56
2021-01-15 04:00:00 16.4 25 Nordeste 42 Nordeste 0 -- -- 58
2021-01-15 03:00:00 16.8 14 Norte 37 Norte 0 -- -- 52
2021-01-15 02:00:00 16.8 17 Norte 43 Nordeste 0 -- -- 57
2021-01-15 01:00:00 16.9 22 Nordeste 43 Nordeste 0 -- -- 59
2021-01-15 00:00:00 17.1 24 Nordeste 38 Nordeste 0 -- -- 60
2021-01-14 23:00:00 16.8 12 Norte 26 Nordeste 0 -- -- 59
2021-01-14 22:00:00 17 19 Nordeste 37 Nordeste 0 -- -- 57
2021-01-14 21:00:00 17.2 18 Nordeste 37 Nordeste 0 -- -- 53
2021-01-14 20:00:00 17.2 22 Nordeste 37 Nordeste 0 -- -- 56
2021-01-14 19:00:00 17 18 Nordeste 33 Nordeste 0 -- -- 60
2021-01-14 18:00:00 17.1 13 Nordeste 32 Nordeste 0 -- -- 60
2021-01-14 17:00:00 17.1 13 Nordeste 27 Nordeste 0 -- -- 59
2021-01-14 16:00:00 17.1 16 Nordeste 28 Nordeste 0 -- -- 58
2021-01-14 15:00:00 17.8 14 Nordeste 29 Nordeste 0 -- -- 58
2021-01-14 14:00:00 17.5 17 Nordeste 27 Nordeste 0 -- -- 59
2021-01-14 13:00:00 17.4 18 Nordeste 30 Este 0 -- -- 63
2021-01-14 12:00:00 18.3 12 Este 23 Este 0 -- -- 56
2021-01-14 11:00:00 18.8 15 Este 26 Este 0 -- -- 54
2021-01-14 10:00:00 17.2 19 Este 28 Este 0 -- -- 59
2021-01-14 09:00:00 17.3 16 Nordeste 26 Nordeste 0 -- -- 59
2021-01-14 08:00:00 16.9 15 Nordeste 27 Nordeste 0 -- -- 63
2021-01-14 07:00:00 16.7 13 Nordeste 26 Nordeste 0 -- -- 63
2021-01-14 06:00:00 16.7 12 Nordeste 24 Nordeste 0 -- -- 62
2021-01-14 05:00:00 17.1 14 Nordeste 22 Nordeste 0 -- -- 60
2021-01-14 04:00:00 16.8 13 Nordeste 23 Nordeste 0 -- -- 63
2021-01-14 03:00:00 17 9 Nordeste 24 Nordeste 0 -- -- 63
2021-01-14 02:00:00 17.1 14 Nordeste 26 Nordeste 0 -- -- 63
2021-01-14 01:00:00 17.2 16 Nordeste 26 Nordeste 0 -- -- 64
2021-01-14 00:00:00 17.2 13 Nordeste 27 Norte 0 -- -- 65
2021-01-13 23:00:00 17.2 12 Nordeste 27 Nordeste 0 -- -- 63
2021-01-13 22:00:00 17.1 12 Norte 29 Nordeste 0 -- -- 62
2021-01-13 21:00:00 17.2 18 Nordeste 32 Nordeste 0 -- -- 60
2021-01-13 20:00:00 17.2 13 Nordeste 24 Nordeste 0 -- -- 59
2021-01-13 19:00:00 17.1 13 Norte 23 Norte 0 -- -- 58
2021-01-13 18:00:00 17.2 14 Norte 24 Nordeste 0 -- -- 58
2021-01-13 17:00:00 18.2 8 Norte 22 Nordeste 0 -- -- 56
2021-01-13 16:00:00 17.8 12 Nordeste 22 Nordeste 0 -- -- 54
2021-01-13 15:00:00 18.9 12 Nordeste 27 Nordeste 0 -- -- 54
2021-01-13 14:00:00 18 13 Nordeste 27 Norte 0 -- -- 54
2021-01-13 13:00:00 17.7 14 Nordeste 31 Nordeste 0 -- -- 56
2021-01-13 12:00:00 18.2 16 Nordeste 31 Nordeste 0 -- -- 58
2021-01-13 11:00:00 17.8 21 Nordeste 32 Nordeste 0 -- -- 59
2021-01-13 10:00:00 17.8 21 Nordeste 36 Nordeste 0 -- -- 62
2021-01-13 09:00:00 17 21 Nordeste 37 Nordeste 0 -- -- 64
2021-01-13 08:00:00 17.4 21 Nordeste 42 Nordeste 0 -- -- 64
2021-01-13 07:00:00 16.7 20 Nordeste 35 Nordeste 0 -- -- 65
2021-01-13 06:00:00 16.5 14 Nordeste 31 Nordeste 0 -- -- 66
2021-01-13 05:00:00 16.2 12 Nordeste 35 Nordeste 0 -- -- 69
2021-01-13 04:00:00 16.3 14 Nordeste 22 Norte 0 -- -- 68
2021-01-13 03:00:00 16.3 12 Nordeste 24 Nordeste 0 -- -- 69
2021-01-13 02:00:00 16.3 11 Nordeste 33 Nordeste 0 -- -- 69
2021-01-13 01:00:00 16.5 14 Norte 35 Nordeste 0 -- -- 67
2021-01-13 00:00:00 16.6 15 Norte 31 Nordeste 0 -- -- 68
2021-01-12 23:00:00 16.8 11 Norte 24 Norte 0 -- -- 62
2021-01-12 22:00:00 16.8 14 Norte 29 Norte 0 -- -- 62
2021-01-12 21:00:00 16.3 15 Nordeste 30 Nordeste 0 -- -- 65
2021-01-12 20:00:00 15.7 12 Oeste 21 Noroeste 0 -- -- 67
2021-01-12 19:00:00 15.6 9 Noroeste 24 Noroeste 0 -- -- 68
2021-01-12 18:00:00 14.7 6 Noroeste 41 Nordeste 0.4 -- -- 73
2021-01-12 17:00:00 18.6 7 Noroeste 22 Noroeste 0 -- -- 56
2021-01-12 16:00:00 17 10 Noroeste 22 Oeste 0 -- -- 54
2021-01-12 15:00:00 18.8 6 Noroeste 16 Oeste 0 -- -- 55
2021-01-12 14:00:00 17.1 3 Sudoeste 13 Sudoeste 0 -- -- 67
2021-01-12 13:00:00 15.5 5 Sudeste 26 Nordeste 0.1 -- -- 74
2021-01-12 12:00:00 14.2 12 Norte 27 Norte 0.9 -- -- 78
2021-01-12 11:00:00 18.4 3 Oeste 17 Oeste 0 -- -- 58
2021-01-12 10:00:00 16.2 13 Oeste 23 Oeste 0 -- -- 65
2021-01-12 09:00:00 13.6 13 Oeste 24 Noroeste 0 -- -- 76
2021-01-12 08:00:00 15 6 Este 37 Nordeste 0 -- -- 75
2021-01-12 07:00:00 14.5 16 Nordeste 31 Nordeste 0 -- -- 76
2021-01-12 06:00:00 14.6 20 Noroeste 30 Noroeste 0 -- -- 74
2021-01-12 05:00:00 14.7 15 Oeste 20 Oeste 0 -- -- 71
2021-01-12 04:00:00 14.8 9 Nordeste 27 Nordeste 0.2 -- -- 73
2021-01-12 03:00:00 15.8 11 Noroeste 24 Noroeste 0 -- -- 63
2021-01-12 02:00:00 16 12 Noroeste 22 Noroeste 0 -- -- 62
2021-01-12 01:00:00 16.1 11 Noroeste 20 Noroeste 0 -- -- 59
2021-01-12 00:00:00 16.3 9 Noroeste 21 Noroeste 0 -- -- 58
2021-01-11 23:00:00 16.5 12 Norte 28 Nordeste 0 -- -- 57
2021-01-11 22:00:00 16.5 14 Norte 34 Nordeste 0 -- -- 59
2021-01-11 21:00:00 16.6 14 Norte 27 Norte 0 -- -- 62
2021-01-11 20:00:00 16.6 17 Norte 28 Norte 0 -- -- 55
2021-01-11 19:00:00 16.1 10 Norte 34 Norte 0 -- -- 64
2021-01-11 18:00:00 15.1 14 Norte 39 Noroeste 0.5 -- -- 73
2021-01-11 17:00:00 16.4 17 Noroeste 33 Norte 0 -- -- 59
2021-01-11 16:00:00 16.7 19 Norte 33 Noroeste 0 -- -- 57
2021-01-11 15:00:00 16.3 21 Norte 37 Norte 0 -- -- 59
2021-01-11 14:00:00 18 18 Norte 40 Norte 0 -- -- 57
2021-01-11 13:00:00 16.7 20 Norte 39 Norte 0 -- -- 54
2021-01-11 12:00:00 17 19 Noroeste 35 Norte 0 -- -- 57
2021-01-11 11:00:00 15.9 19 Noroeste 51 Noroeste 0.2 -- -- 63
2021-01-11 10:00:00 16.4 18 Noroeste 39 Noroeste 0 -- -- 54
2021-01-11 09:00:00 15.8 21 Noroeste 36 Noroeste 0 -- -- 57
2021-01-11 08:00:00 15.9 19 Noroeste 29 Noroeste 0 -- -- 52
2021-01-11 07:00:00 15.6 15 Noroeste 25 Noroeste 0 -- -- 56
2021-01-11 06:00:00 15.5 16 Noroeste 34 Norte 0 -- -- 54
2021-01-11 05:00:00 15.6 19 Norte 39 Norte 0 -- -- 54
2021-01-11 04:00:00 15.8 19 Norte 36 Norte 0 -- -- 56
2021-01-11 03:00:00 15.6 22 Norte 39 Norte 0.1 -- -- 58
2021-01-11 02:00:00 15.8 19 Noroeste 44 Norte 0 -- -- 62
2021-01-11 01:00:00 14.9 22 Noroeste 61 Noroeste 1 -- -- 69
2021-01-11 00:00:00 14.7 15 Norte 31 Norte 0 -- -- 73
2021-01-10 23:00:00 15.2 18 Noroeste 49 Norte 0.1 -- -- 71
2021-01-10 22:00:00 15.8 21 Norte 41 Noroeste 0 -- -- 71
2021-01-10 21:00:00 17 25 Noroeste 50 Noroeste 0 -- -- 53
2021-01-10 20:00:00 16.9 32 Noroeste 53 Noroeste 0 -- -- 58
2021-01-10 19:00:00 17.9 30 Noroeste 53 Noroeste 0 -- -- 53
2021-01-10 18:00:00 16.8 31 Noroeste 59 Noroeste 0 -- -- 59
2021-01-10 17:00:00 17.1 31 Noroeste 57 Noroeste 0 -- -- 54
2021-01-10 16:00:00 17.5 32 Noroeste 55 Noroeste 0 -- -- 54
2021-01-10 15:00:00 17.9 31 Noroeste 54 Noroeste 0 -- -- 49
2021-01-10 14:00:00 17.7 32 Noroeste 57 Noroeste 0 -- -- 54
2021-01-10 13:00:00 17.9 32 Noroeste 55 Noroeste 0 -- -- 53
2021-01-10 12:00:00 17 28 Noroeste 58 Noroeste 0 -- -- 58
2021-01-10 11:00:00 17.1 24 Noroeste 55 Norte 0 -- -- 64
2021-01-10 10:00:00 16.9 18 Noroeste 54 Noroeste 0 -- -- 56
2021-01-10 09:00:00 16.3 31 Noroeste 56 Noroeste 0 -- -- 60
2021-01-10 08:00:00 15 22 Norte 59 Noroeste 0.7 -- -- 69
2021-01-10 07:00:00 14.9 15 Oeste 50 Noroeste 0 -- -- 69
2021-01-10 06:00:00 15.3 19 Noroeste 43 Noroeste 0 -- -- 64
2021-01-10 05:00:00 14.5 17 Noroeste 39 Noroeste 0.2 -- -- 73
2021-01-10 04:00:00 15.5 26 Noroeste 44 Noroeste 0 -- -- 63
2021-01-10 03:00:00 15.8 28 Noroeste 42 Noroeste 0 -- -- 63
2021-01-10 02:00:00 15.3 15 Noroeste 39 Noroeste 0.3 -- -- 68
2021-01-10 01:00:00 14 20 Noroeste 39 Noroeste 1.1 -- -- 69
2021-01-10 00:00:00 15.9 18 Noroeste 38 Noroeste 0 -- -- 57
2021-01-09 23:00:00 15.4 18 Noroeste 41 Noroeste 0.1 -- -- 61
2021-01-09 22:00:00 16 20 Noroeste 40 Noroeste 0 -- -- 55
2021-01-09 21:00:00 15.8 22 Norte 41 Noroeste 0 -- -- 55
2021-01-09 20:00:00 15.6 24 Noroeste 38 Noroeste 0 -- -- 58
2021-01-09 19:00:00 15.6 25 Noroeste 54 Noroeste 0 -- -- 54
2021-01-09 18:00:00 15.8 28 Noroeste 48 Noroeste 0 -- -- 54
2021-01-09 17:00:00 16.1 26 Noroeste 57 Noroeste 0 -- -- 54
2021-01-09 16:00:00 15.2 27 Noroeste 49 Norte 0 -- -- 56
2021-01-09 15:00:00 15.6 28 Noroeste 51 Norte 0 -- -- 62
2021-01-09 14:00:00 16.6 32 Noroeste 51 Noroeste 0 -- -- 51
2021-01-09 13:00:00 16.1 12 Noroeste 54 Noroeste 0.3 -- -- 59
2021-01-09 12:00:00 15.9 21 Noroeste 48 Noroeste 0 -- -- 62
2021-01-09 11:00:00 15.4 27 Norte 53 Noroeste 0 -- -- 62
2021-01-09 10:00:00 15.3 29 Noroeste 53 Oeste 0 -- -- 60
2021-01-09 09:00:00 15.8 24 Noroeste 42 Noroeste 0 -- -- 57
2021-01-09 08:00:00 15.3 28 Noroeste 53 Noroeste 0.1 -- -- 57
2021-01-09 07:00:00 15.6 30 Noroeste 57 Noroeste 0 -- -- 57
2021-01-09 06:00:00 14.3 13 Oeste 38 Noroeste 0 -- -- 65
2021-01-09 05:00:00 14.2 12 Oeste 32 Oeste 0 -- -- 65
2021-01-09 04:00:00 14.7 8 Noroeste 32 Noroeste 0 -- -- 69
2021-01-09 03:00:00 15.1 19 Noroeste 33 Noroeste 0 -- -- 60
2021-01-09 02:00:00 14.7 7 Oeste 32 Oeste 0.1 -- -- 68
2021-01-09 01:00:00 15.2 14 Noroeste 34 Noroeste 0 -- -- 64
2021-01-09 00:00:00 15.9 21 Noroeste 33 Noroeste 0 -- -- 59
2021-01-08 23:00:00 15.9 23 Noroeste 36 Noroeste 0.1 -- -- 59
2021-01-08 22:00:00 13.9 12 Oeste 30 Oeste 6.6 -- -- 77
2021-01-08 21:00:00 13.5 13 Oeste 29 Noroeste 7.1 -- -- 84
2021-01-08 20:00:00 14 0 Calma 26 Noroeste 4.4 -- -- 84
2021-01-08 19:00:00 13.7 17 Noroeste 49 Noroeste 2.2 -- -- 82
2021-01-08 18:00:00 15.5 5 Oeste 36 Noroeste 0.4 -- -- 75
2021-01-08 17:00:00 16.2 18 Noroeste 39 Noroeste 0.6 -- -- 68
2021-01-08 16:00:00 17.4 18 Noroeste 43 Noroeste 0 -- -- 63
2021-01-08 15:00:00 16.4 23 Noroeste 43 Noroeste 0 -- -- 71
2021-01-08 14:00:00 16.8 17 Noroeste 37 Noroeste 0.1 -- -- 73
2021-01-08 13:00:00 15.3 17 Noroeste 44 Noroeste 3.1 -- -- 84
2021-01-08 12:00:00 16.5 24 Noroeste 39 Noroeste 1 -- -- 73
2021-01-08 11:00:00 16.7 18 Noroeste 48 Noroeste 0.7 -- -- 74
2021-01-08 10:00:00 17.7 21 Noroeste 48 Noroeste 1.3 -- -- 73
2021-01-08 09:00:00 17.8 23 Noroeste 44 Noroeste 0.8 -- -- 71
2021-01-08 08:00:00 17.7 10 Noroeste 39 Noroeste 0.4 -- -- 74
2021-01-08 07:00:00 18.2 13 Noroeste 28 Noroeste 0 -- -- 73
2021-01-08 06:00:00 17.9 6 Noroeste 53 Noroeste 0 -- -- 69
2021-01-08 05:00:00 18.7 22 Noroeste 51 Noroeste 0 -- -- 64
2021-01-08 04:00:00 21 2 Este 51 Sudoeste 0 -- -- 47
2021-01-08 03:00:00 22.1 18 Sudoeste 39 Sur 0 -- -- 48
2021-01-08 02:00:00 21 3 Sudeste 13 Sur 0 -- -- 59
2021-01-08 01:00:00 21.1 6 Sudeste 31 Nordeste 0 -- -- 64
2021-01-08 00:00:00 20.8 5 Este 22 Oeste 0 -- -- 65
2021-01-07 23:00:00 20.4 8 Sur 32 Sudeste 0 -- -- 68
2021-01-07 22:00:00 20.2 23 Sudeste 33 Sudeste 0 -- -- 67
2021-01-07 21:00:00 22.3 6 Norte 31 Sur 0 -- -- 57
2021-01-07 20:00:00 23 12 Sur 21 Este 0 -- -- 52
2021-01-07 19:00:00 23.2 0 Calma 33 Sudeste 0 -- -- 53
2021-01-07 18:00:00 24.1 4 Sudeste 33 Sudeste 0 -- -- 48
2021-01-07 17:00:00 25.1 12 Este 34 Nordeste 0 -- -- 50
2021-01-07 16:00:00 25.3 5 Nordeste 27 Este 0 -- -- 47
2021-01-07 15:00:00 24.4 9 Este 27 Este 0 -- -- 50
2021-01-07 14:00:00 22.3 5 Norte 25 Nordeste 0 -- -- 62
2021-01-07 13:00:00 21.2 26 Este 40 Este 0 -- -- 71
2021-01-07 12:00:00 21.6 12 Norte 23 Noroeste 0 -- -- 68
2021-01-07 11:00:00 22.1 10 Norte 18 Sudeste 0 -- -- 61
2021-01-07 10:00:00 24.4 6 Sudeste 19 Este 0 -- -- 52
2021-01-07 09:00:00 22.2 4 Sudoeste 19 Oeste 0 -- -- 62
2021-01-07 08:00:00 20.2 10 Oeste 19 Noroeste 0 -- -- 69
2021-01-07 07:00:00 19.9 3 Norte 14 Sur 0 -- -- 71
2021-01-07 06:00:00 19.9 2 Sudoeste 24 Oeste 0 -- -- 71
2021-01-07 05:00:00 19.6 3 Sudoeste 15 Noroeste 0 -- -- 75
2021-01-07 04:00:00 20.1 5 Noroeste 12 Noroeste 0 -- -- 69
2021-01-07 03:00:00 19.9 3 Norte 19 Noroeste 0 -- -- 70
2021-01-07 02:00:00 19.8 3 Sudoeste 17 Oeste 0 -- -- 73
2021-01-07 01:00:00 -- 2 Oeste 23 Oeste 0 -- -- --
2021-01-07 00:00:00 19.8 2 Sur 21 Norte 0 -- -- 78
2021-01-06 23:00:00 20 8 Noroeste 24 Norte 0 -- -- 80
2021-01-06 22:00:00 21 11 Norte 31 Sudoeste 0 -- -- 72
2021-01-06 21:00:00 26.1 20 Sudoeste 39 Sudoeste 0 -- -- 41
2021-01-06 20:00:00 23.1 4 Este 43 Oeste 0 -- -- 63
2021-01-06 19:00:00 24.9 22 Oeste 42 Sudoeste 0 -- -- 47
2021-01-06 18:00:00 24.8 7 Norte 29 Norte 0 -- -- 48
2021-01-06 17:00:00 24.6 9 Norte 39 Oeste 0 -- -- 51
2021-01-06 16:00:00 21.6 17 Norte 26 Norte 0 -- -- 74
2021-01-06 15:00:00 22.7 2 Este 30 Sudeste 0 -- -- 68
2021-01-06 14:00:00 23.3 7 Este 25 Sur 0 -- -- 63
2021-01-06 13:00:00 23.3 11 Sur 23 Sur 0 -- -- 63
2021-01-06 12:00:00 24.2 0 Calma 23 Sur 0 -- -- 59
2021-01-06 11:00:00 23.2 12 Sur 34 Sur 0 -- -- 62
2021-01-06 10:00:00 22.7 22 Sur 45 Sur 0 -- -- 65
2021-01-06 09:00:00 20.3 9 Sur 39 Sur 0 -- -- 75
2021-01-06 08:00:00 20.2 16 Sur 32 Sur 0 -- -- 75
2021-01-06 07:00:00 20 15 Sur 32 Sur 0 -- -- 74
2021-01-06 06:00:00 20.3 14 Sur 31 Sur 0 -- -- 67
2021-01-06 05:00:00 19.3 5 Sur 24 Sur 0 -- -- 69
2021-01-06 04:00:00 18.6 0 Calma 6 Sudoeste 0 -- -- 76
2021-01-06 03:00:00 18.8 2 Sur 11 Sur 0 -- -- 76
2021-01-06 02:00:00 18.7 3 Sur 14 Sudoeste 0 -- -- 75
2021-01-06 01:00:00 18.9 0 Calma 12 Oeste 0 -- -- 74
2021-01-06 00:00:00 19.2 6 Oeste 15 Oeste 0 -- -- 74
2021-01-05 23:00:00 19.1 10 Oeste 18 Oeste 0 -- -- 73
2021-01-05 22:00:00 19.3 8 Noroeste 13 Noroeste 0 -- -- 74
2021-01-05 21:00:00 19.8 3 Sur 17 Sudeste 0 -- -- 72
2021-01-05 20:00:00 20.7 8 Sur 12 Sur 0 -- -- 73
2021-01-05 19:00:00 19.7 0 Calma 12 Nordeste 0 -- -- 78
2021-01-05 18:00:00 20.3 9 Nordeste 19 Nordeste 0 -- -- 75
2021-01-05 17:00:00 20.7 8 Nordeste 18 Nordeste 0 -- -- 70
2021-01-05 16:00:00 22.5 5 Norte 17 Nordeste 0 -- -- 64
2021-01-05 15:00:00 21.6 10 Nordeste 17 Nordeste 0 -- -- 60
2021-01-05 14:00:00 21.5 8 Nordeste 15 Sur 0 -- -- 61
2021-01-05 13:00:00 22.4 13 Sudeste 17 Sudeste 0 -- -- 62
2021-01-05 12:00:00 25 6 Sudeste 11 Sudeste 0 -- -- 51
2021-01-05 11:00:00 22.9 5 Nordeste 10 Norte 0 -- -- 54
2021-01-05 10:00:00 25.1 2 Sudeste 5 Sudeste 0 -- -- 50
2021-01-05 09:00:00 23.6 0 Calma 13 Oeste 0 -- -- 53
2021-01-05 08:00:00 19.5 9 Oeste 18 Oeste 0 -- -- 60
2021-01-05 07:00:00 18.9 13 Oeste 17 Noroeste 0 -- -- 65
2021-01-05 06:00:00 19.5 5 Oeste 10 Noroeste 0 -- -- 65
2021-01-05 05:00:00 19.5 5 Sur 10 Sudoeste 0 -- -- 67
2021-01-05 04:00:00 19.3 7 Sudoeste 12 Sudeste 0 -- -- 67
2021-01-05 03:00:00 18.9 2 Sudoeste 12 Noroeste 0 -- -- 68
2021-01-05 02:00:00 19.1 7 Noroeste 15 Noroeste 0 -- -- 64
2021-01-05 01:00:00 18.6 6 Noroeste 12 Noroeste 0 -- -- 67
2021-01-05 00:00:00 17.9 0 Calma 6 Este 0 -- -- 70
2021-01-04 23:00:00 18.1 4 Sur 12 Sur 0 -- -- 70
2021-01-04 22:00:00 18.1 0 Calma 7 Noroeste 0 -- -- 69
2021-01-04 21:00:00 18.3 3 Sur 11 Noroeste 0 -- -- 69
2021-01-04 20:00:00 18.3 7 Oeste 11 Noroeste 0 -- -- 69
2021-01-04 19:00:00 18.7 2 Noroeste 11 Norte 0 -- -- 69
2021-01-04 18:00:00 19 6 Norte 11 Norte 0 -- -- 67
2021-01-04 17:00:00 19.7 3 Noroeste 24 Sudeste 0 -- -- 64
2021-01-04 16:00:00 19 18 Sur 36 Sudeste 0 -- -- 68
2021-01-04 15:00:00 19 29 Sudeste 40 Sudeste 0 -- -- 67
2021-01-04 14:00:00 20 26 Sudeste 41 Sudeste 0 -- -- 66
2021-01-04 13:00:00 18.8 33 Sudeste 48 Sudeste 0 -- -- 68
2021-01-04 12:00:00 19.1 35 Sudeste 49 Sudeste 0 -- -- 65
2021-01-04 11:00:00 18.3 34 Sudeste 44 Sur 0 -- -- 68
2021-01-04 10:00:00 17.8 30 Sur 41 Sur 0 -- -- 69
2021-01-04 09:00:00 17.7 30 Sudeste 38 Sudeste 0 -- -- 69
2021-01-04 08:00:00 17.7 28 Sudeste 37 Sur 0 -- -- 68
2021-01-04 07:00:00 17.1 18 Sur 24 Sudeste 0 -- -- 68
2021-01-04 06:00:00 16.7 16 Sur 22 Sur 0 -- -- 67
2021-01-04 05:00:00 16.9 15 Sudeste 20 Sudeste 0 -- -- 67
2021-01-04 04:00:00 17.1 8 Sur 18 Sur 0 -- -- 65
2021-01-04 03:00:00 17 12 Sur 20 Sur 0 -- -- 65
2021-01-04 02:00:00 17 12 Sur 18 Sur 0 -- -- 64
2021-01-04 01:00:00 17 13 Sur 21 Sur 0 -- -- 63
2021-01-04 00:00:00 17.4 5 Sur 15 Sur 0 -- -- 62
2021-01-03 23:00:00 17.2 6 Sur 13 Sur 0 -- -- 60
2021-01-03 22:00:00 17.4 7 Sur 11 Sur 0 -- -- 59
2021-01-03 21:00:00 17.3 4 Sudoeste 9 Sur 0 -- -- 59
2021-01-03 20:00:00 17.5 4 Sudoeste 20 Sur 0 -- -- 61
2021-01-03 19:00:00 17.7 14 Sudeste 21 Sudeste 0 -- -- 60
2021-01-03 18:00:00 17.9 5 Sudeste 15 Sudeste 0 -- -- 59
2021-01-03 17:00:00 18.8 4 Sudeste 17 Sudeste 0 -- -- 58
2021-01-03 16:00:00 20.9 3 Este 13 Este 0 -- -- 53
2021-01-03 15:00:00 19.6 3 Sudeste 9 Sudeste 0 -- -- 56
2021-01-03 14:00:00 18.3 3 Nordeste 14 Nordeste 0 -- -- 62
2021-01-03 13:00:00 17.3 11 Nordeste 27 Nordeste 0 -- -- 64
2021-01-03 12:00:00 17.5 12 Este 18 Este 0 -- -- 63
2021-01-03 11:00:00 18.6 3 Sudeste 14 Sur 0 -- -- 59
2021-01-03 10:00:00 18.7 0 Calma 12 Sudeste 0 -- -- 59
2021-01-03 09:00:00 17.7 3 Sudeste 17 Este 0 -- -- 62
2021-01-03 08:00:00 17 3 Sudeste 10 Sudeste 0 -- -- 64
2021-01-03 07:00:00 16.8 6 Noroeste 9 Noroeste 0 -- -- 63
2021-01-03 06:00:00 16.8 6 Oeste 9 Oeste 0 -- -- 63
2021-01-03 05:00:00 17.2 5 Este 12 Este 0 -- -- 62
2021-01-03 04:00:00 17.1 9 Nordeste 18 Este 0 -- -- 62
2021-01-03 03:00:00 17.3 9 Nordeste 18 Nordeste 0 -- -- 62
2021-01-03 02:00:00 17.4 8 Nordeste 20 Este 0 -- -- 59
2021-01-03 01:00:00 17.4 14 Nordeste 24 Nordeste 0 -- -- 61
2021-01-03 00:00:00 17.7 12 Nordeste 25 Nordeste 0 -- -- 62
2021-01-02 23:00:00 17.5 15 Nordeste 30 Nordeste 0 -- -- 63
2021-01-02 22:00:00 17.6 12 Nordeste 21 Nordeste 0 -- -- 64
2021-01-02 21:00:00 17.5 6 Nordeste 23 Nordeste 0 -- -- 58
2021-01-02 20:00:00 18.8 14 Nordeste 26 Nordeste 0 -- -- 58
2021-01-02 19:00:00 17.7 10 Nordeste 21 Nordeste 0 -- -- 59
2021-01-02 18:00:00 17.5 7 Nordeste 25 Nordeste 0 -- -- 65
2021-01-02 17:00:00 17.5 12 Nordeste 28 Norte 0 -- -- 64
2021-01-02 16:00:00 18.3 8 Norte 19 Nordeste 0 -- -- 56
2021-01-02 15:00:00 18.5 9 Norte 30 Norte 0 -- -- 52
2021-01-02 14:00:00 19.4 3 Norte 17 Nordeste 0 -- -- 53
2021-01-02 13:00:00 17.8 8 Nordeste 21 Nordeste 0 -- -- 56